Time;durP1;ratioP1;P1;durP2;ratioP2;P2;SDS_P1;SDS_P2;PMS_P1;PMS_P2;Temp;Humidity;BMP_temperature;BMP_pressure;BME280_temperature;BME280_humidity;BME280_pressure;Samples;Min_cycle;Max_cycle;Signal;HPM_P1;HPM_P2
2023/06/21 18:25:51;;;;;;;5.18;2.67;;;22.50;77.70;;;;;;5085660;28;20393;-79
2023/06/21 18:29:37;;;;;;;6.65;3.10;;;22.50;75.00;;;;;;5114546;27;20392;-80
2023/06/21 18:32:03;;;;;;;4.45;2.67;;;22.40;75.30;;;;;;5098699;28;20078;-79
2023/06/21 18:34:29;;;;;;;5.55;2.80;;;22.30;75.50;;;;;;5106797;28;20479;-79
2023/06/21 18:36:54;;;;;;;6.18;2.80;;;22.10;74.30;;;;;;5107521;28;20080;-80
2023/06/21 18:39:20;;;;;;;4.47;2.45;;;21.90;75.10;;;;;;5107883;28;20016;-79
2023/06/21 18:41:45;;;;;;;8.82;2.78;;;21.70;76.10;;;;;;5108024;28;20020;-79
2023/06/21 18:44:11;;;;;;;9.32;3.28;;;21.50;76.90;;;;;;5107828;28;20055;-79
2023/06/21 18:46:37;;;;;;;6.47;3.08;;;21.30;77.30;;;;;;5108112;28;20031;-79
2023/06/21 18:49:02;;;;;;;5.53;2.50;;;21.10;78.20;;;;;;5108383;28;20542;-81
2023/06/21 18:51:28;;;;;;;5.05;2.90;;;21.00;79.40;;;;;;5107428;28;20012;-80
2023/06/21 18:53:54;;;;;;;3.22;2.53;;;20.80;80.50;;;;;;5107144;28;20076;-81
2023/06/21 18:56:21;;;;;;;6.45;3.05;;;20.70;81.30;;;;;;5107107;28;20016;-81
2023/06/21 18:58:49;;;;;;;4.75;2.30;;;20.60;81.80;;;;;;5126763;22;20061;-88
2023/06/21 19:01:15;;;;;;;2.90;2.00;;;20.60;82.30;;;;;;5105932;28;20020;-88
2023/06/21 19:03:41;;;;;;;3.25;2.17;;;20.50;82.80;;;;;;5102588;28;20020;-87
2023/06/21 19:06:06;;;;;;;3.45;2.35;;;20.40;83.50;;;;;;5106669;28;20031;-87
2023/06/21 19:08:32;;;;;;;7.57;3.47;;;20.30;83.90;;;;;;5104373;28;20038;-86
2023/06/21 19:10:57;;;;;;;7.55;3.80;;;20.20;85.00;;;;;;5107018;28;20016;-86
2023/06/21 19:13:23;;;;;;;5.85;3.50;;;20.10;85.80;;;;;;5107187;28;20870;-86
2023/06/21 19:15:55;;;;;;;4.95;3.50;;;20.00;86.40;;;;;;5107122;28;20096;-87
2023/06/21 19:18:20;;;;;;;5.82;3.22;;;19.90;87.10;;;;;;5078771;28;20353;-87
2023/06/21 19:20:46;;;;;;;6.15;3.00;;;19.80;87.80;;;;;;5107625;28;20038;-89
2023/06/21 19:23:12;;;;;;;5.07;2.90;;;19.60;88.30;;;;;;5107747;28;20028;-89
2023/06/21 19:25:38;;;;;;;6.32;2.85;;;19.50;88.90;;;;;;5107319;28;20048;-89
2023/06/21 19:28:03;;;;;;;3.35;2.35;;;19.40;89.60;;;;;;5107315;28;20512;-87
2023/06/21 19:30:29;;;;;;;4.57;2.50;;;19.20;90.00;;;;;;5105029;28;20031;-87
2023/06/21 19:32:54;;;;;;;5.78;2.33;;;19.10;90.40;;;;;;5105405;28;20027;-89
2023/06/21 19:35:21;;;;;;;8.98;3.58;;;18.90;90.70;;;;;;5107611;28;21125;-89
2023/06/21 19:37:47;;;;;;;4.97;2.45;;;18.80;91.10;;;;;;5105987;28;20016;-87
2023/06/21 19:40:13;;;;;;;3.05;2.30;;;18.60;91.30;;;;;;5097331;28;20066;-89
2023/06/21 19:42:43;;;;;;;3.13;2.45;;;18.50;91.50;;;;;;5093638;28;20391;-88
2023/06/21 19:45:09;;;;;;;5.45;3.22;;;18.40;91.80;;;;;;5093274;28;20399;-89
2023/06/21 19:47:34;;;;;;;6.22;2.80;;;18.20;92.20;;;;;;5081342;28;20032;-89
2023/06/21 19:50:00;;;;;;;6.85;3.83;;;18.10;92.60;;;;;;5093295;28;20012;-88
2023/06/21 19:52:26;;;;;;;5.93;3.30;;;18.00;92.90;;;;;;5092913;28;20033;-87
2023/06/21 19:54:52;;;;;;;7.15;3.63;;;17.80;93.20;;;;;;5074808;28;20020;-88
2023/06/21 19:57:17;;;;;;;5.00;3.38;;;17.70;93.50;;;;;;5087244;28;20020;-89
2023/06/21 19:59:43;;;;;;;6.78;3.45;;;17.60;93.80;;;;;;5102817;22;20380;-84
2023/06/21 20:02:09;;;;;;;5.95;3.80;;;17.40;94.20;;;;;;5068211;28;20112;-81
2023/06/21 20:04:34;;;;;;;6.80;3.83;;;17.30;94.50;;;;;;5070017;28;20813;-86
2023/06/21 20:07:00;;;;;;;9.63;5.35;;;17.20;95.00;;;;;;5075804;28;20133;-81
2023/06/21 20:09:26;;;;;;;8.13;4.05;;;17.10;95.40;;;;;;5068749;28;20047;-82
2023/06/21 20:11:52;;;;;;;8.50;4.05;;;17.00;95.60;;;;;;5064737;28;20524;-83
2023/06/21 20:14:18;;;;;;;6.18;3.03;;;16.90;95.80;;;;;;5068477;28;20033;-79
2023/06/21 20:16:43;;;;;;;6.25;4.10;;;16.80;95.90;;;;;;5068347;28;20032;-83
2023/06/21 20:19:09;;;;;;;6.63;4.22;;;16.70;96.00;;;;;;5068322;28;20029;-83
2023/06/21 20:21:35;;;;;;;7.07;3.70;;;16.60;96.30;;;;;;5067761;28;20021;-83
2023/06/21 20:24:00;;;;;;;9.73;5.53;;;16.50;96.40;;;;;;5066592;28;20032;-83
2023/06/21 20:26:26;;;;;;;8.38;4.47;;;16.50;96.80;;;;;;5066377;28;20029;-83
2023/06/21 20:28:52;;;;;;;6.65;4.28;;;16.40;97.00;;;;;;5062924;28;20040;-82
2023/06/21 20:31:17;;;;;;;9.80;4.40;;;16.40;97.00;;;;;;5061646;28;20023;-82
2023/06/21 20:33:43;;;;;;;9.75;4.78;;;16.30;97.10;;;;;;5067884;28;20020;-87
2023/06/21 20:36:09;;;;;;;7.40;4.70;;;16.20;97.50;;;;;;5068420;28;20111;-90
2023/06/21 20:38:35;;;;;;;6.97;4.55;;;16.10;97.60;;;;;;5070131;28;20085;-84
2023/06/21 20:41:04;;;;;;;7.57;4.43;;;16.10;97.80;;;;;;5067495;28;20013;-84
2023/06/21 20:43:35;;;;;;;8.63;5.50;;;16.00;98.00;;;;;;5065956;28;20031;-84
2023/06/21 20:46:03;;;;;;;9.98;5.88;;;15.90;98.10;;;;;;5067287;28;20123;-82
2023/06/21 20:48:29;;;;;;;8.98;4.47;;;15.80;98.30;;;;;;5066817;28;20051;-83
2023/06/21 20:50:55;;;;;;;8.32;4.97;;;15.80;98.50;;;;;;5066178;28;20048;-85
2023/06/21 20:53:20;;;;;;;9.57;4.80;;;15.70;98.70;;;;;;5065939;28;20056;-85
2023/06/21 20:55:46;;;;;;;11.85;6.05;;;15.70;98.90;;;;;;5081605;28;20020;-82
2023/06/21 20:58:12;;;;;;;12.88;6.30;;;15.70;98.90;;;;;;5067018;28;20435;-84
2023/06/21 21:00:38;;;;;;;13.02;6.68;;;15.60;99.10;;;;;;5063846;22;20829;-82
2023/06/21 21:03:04;;;;;;;14.40;7.65;;;15.60;99.30;;;;;;5043756;28;20090;-81
2023/06/21 21:05:30;;;;;;;12.75;6.97;;;15.60;99.40;;;;;;5046371;28;20485;-82
2023/06/21 21:07:56;;;;;;;11.35;6.70;;;15.50;99.70;;;;;;5036480;28;20037;-83
2023/06/21 21:10:22;;;;;;;9.15;6.00;;;15.50;99.50;;;;;;5044164;28;20079;-82
2023/06/21 21:12:48;;;;;;;12.20;7.25;;;15.50;99.50;;;;;;5038181;28;20068;-87
2023/06/21 21:15:14;;;;;;;15.68;7.97;;;15.40;99.50;;;;;;5036795;28;20029;-85
2023/06/21 21:17:39;;;;;;;14.73;8.20;;;15.30;99.60;;;;;;5037695;28;20075;-82
2023/06/21 21:20:06;;;;;;;15.40;6.85;;;15.30;99.90;;;;;;5038648;28;20025;-85
2023/06/21 21:22:32;;;;;;;13.07;6.55;;;15.30;99.90;;;;;;5044102;28;20362;-85
2023/06/21 21:24:58;;;;;;;12.25;6.43;;;15.30;99.90;;;;;;5048108;28;20043;-85
2023/06/21 21:27:24;;;;;;;13.32;6.40;;;15.20;99.90;;;;;;5047119;28;20549;-85
2023/06/21 21:29:52;;;;;;;14.88;7.82;;;15.20;99.90;;;;;;5053307;28;20017;-86
2023/06/21 21:32:17;;;;;;;11.55;6.15;;;15.10;99.90;;;;;;5046260;28;20079;-82
2023/06/21 21:34:43;;;;;;;9.60;5.85;;;15.10;99.90;;;;;;5040895;28;20033;-84
2023/06/21 21:37:09;;;;;;;14.07;7.00;;;15.10;99.90;;;;;;5056579;28;20014;-85
2023/06/21 21:39:34;;;;;;;22.63;10.77;;;15.10;99.90;;;;;;5057517;28;20013;-85
2023/06/21 21:42:00;;;;;;;14.57;6.80;;;15.20;99.90;;;;;;5051139;28;20013;-85
2023/06/21 21:44:26;;;;;;;9.85;5.80;;;15.20;99.90;;;;;;5050084;28;20040;-85
2023/06/21 21:46:52;;;;;;;14.73;6.18;;;15.20;99.90;;;;;;5051795;28;20025;-85
2023/06/21 21:49:18;;;;;;;11.52;5.50;;;15.10;99.90;;;;;;5051485;28;20033;-84
2023/06/21 21:51:44;;;;;;;11.60;5.75;;;15.10;99.90;;;;;;5051728;28;20070;-84
2023/06/21 21:54:10;;;;;;;10.18;5.38;;;15.00;99.90;;;;;;5051712;28;20028;-85
2023/06/21 21:56:35;;;;;;;8.25;4.88;;;15.00;99.90;;;;;;5051831;28;20025;-84
2023/06/21 21:59:01;;;;;;;8.27;5.20;;;14.80;99.90;;;;;;5073470;22;20049;-85
2023/06/21 22:01:27;;;;;;;14.18;6.47;;;14.70;99.90;;;;;;5074934;28;20078;-86
2023/06/21 22:03:52;;;;;;;12.77;6.50;;;14.70;99.90;;;;;;5077462;28;20016;-86
2023/06/21 22:06:18;;;;;;;11.82;6.55;;;14.60;99.90;;;;;;5070602;28;20027;-86
2023/06/21 22:08:44;;;;;;;17.02;7.15;;;14.50;99.90;;;;;;5076804;28;20037;-86
2023/06/21 22:11:11;;;;;;;12.75;6.85;;;14.50;99.90;;;;;;5069808;28;20103;-86
2023/06/21 22:13:37;;;;;;;15.55;8.43;;;14.40;99.90;;;;;;5069824;28;20032;-86
2023/06/21 22:16:07;;;;;;;12.13;6.75;;;14.40;99.90;;;;;;5069696;28;20158;-86
2023/06/21 22:18:34;;;;;;;13.15;6.70;;;14.30;99.90;;;;;;5070198;28;20073;-86
2023/06/21 22:21:01;;;;;;;12.48;7.22;;;14.30;99.90;;;;;;5068878;28;20020;-87
2023/06/21 22:23:29;;;;;;;17.13;8.02;;;14.20;99.90;;;;;;5069261;28;20031;-87
2023/06/21 22:26:00;;;;;;;13.48;8.02;;;14.20;99.90;;;;;;5069563;28;20023;-86
2023/06/21 22:28:28;;;;;;;13.32;7.68;;;14.10;99.90;;;;;;5062943;28;20055;-87
2023/06/21 22:30:55;;;;;;;13.23;7.53;;;14.10;99.90;;;;;;5056358;28;20028;-87
2023/06/21 22:33:22;;;;;;;13.27;6.65;;;14.00;99.90;;;;;;5069618;28;20051;-87
2023/06/21 22:35:47;;;;;;;12.45;7.55;;;13.90;99.90;;;;;;5067382;28;20023;-86
2023/06/21 22:38:13;;;;;;;13.95;7.38;;;13.90;99.90;;;;;;5069017;28;20012;-87
2023/06/21 22:40:39;;;;;;;12.77;6.50;;;13.80;99.90;;;;;;5069278;28;20025;-88
2023/06/21 22:43:05;;;;;;;15.38;7.57;;;13.80;99.90;;;;;;5069639;28;20020;-87
2023/06/21 22:45:33;;;;;;;15.68;7.45;;;13.80;99.90;;;;;;5069238;28;20553;-87
2023/06/21 22:47:59;;;;;;;17.08;7.72;;;13.70;99.90;;;;;;5068895;28;20485;-85
2023/06/21 22:50:27;;;;;;;13.27;7.38;;;13.60;99.90;;;;;;5069689;28;20074;-88
2023/06/21 22:52:57;;;;;;;17.80;8.38;;;13.60;99.90;;;;;;5065678;28;20020;-86
2023/06/21 22:55:23;;;;;;;13.30;6.93;;;13.50;99.90;;;;;;5069232;28;20108;-87
2023/06/21 22:57:49;;;;;;;18.00;8.52;;;13.50;99.90;;;;;;5069596;28;20120;-88
2023/06/21 23:00:15;;;;;;;13.27;7.72;;;13.40;99.90;;;;;;5073383;22;20452;-85
2023/06/21 23:02:40;;;;;;;14.63;7.82;;;13.40;99.90;;;;;;5048624;28;20058;-85
2023/06/21 23:05:07;;;;;;;16.35;8.02;;;13.40;99.90;;;;;;5055285;28;20018;-85
2023/06/21 23:07:32;;;;;;;16.33;8.20;;;13.40;99.90;;;;;;5056868;28;20095;-85
2023/06/21 23:10:08;;;;;;;15.50;6.57;;;13.30;99.90;;;;;;5050288;28;20420;-85
2023/06/21 23:12:38;;;;;;;15.90;7.28;;;13.20;99.90;;;;;;5050822;28;20029;-85
2023/06/21 23:15:08;;;;;;;14.43;7.50;;;13.20;99.90;;;;;;5050537;28;20396;-84
2023/06/21 23:17:38;;;;;;;13.07;7.40;;;13.10;99.90;;;;;;5054457;28;20059;-82
2023/06/21 23:20:10;;;;;;;14.98;6.22;;;13.10;99.90;;;;;;5054016;28;20261;-82
2023/06/21 23:22:40;;;;;;;10.10;5.32;;;13.00;99.90;;;;;;5052841;28;20485;-82
2023/06/21 23:25:10;;;;;;;15.90;6.30;;;13.00;99.90;;;;;;5054439;28;20470;-82
2023/06/21 23:27:38;;;;;;;13.93;7.07;;;12.90;99.90;;;;;;5054297;28;20085;-82
2023/06/21 23:30:09;;;;;;;13.63;6.25;;;12.80;99.90;;;;;;5054077;28;20024;-82
2023/06/21 23:32:36;;;;;;;14.45;6.10;;;12.70;99.90;;;;;;5053029;28;20369;-82
2023/06/21 23:35:06;;;;;;;14.75;6.47;;;12.70;99.90;;;;;;5051968;28;20037;-82
2023/06/21 23:37:32;;;;;;;13.05;5.85;;;12.70;99.90;;;;;;5052603;28;20012;-82
2023/06/21 23:39:58;;;;;;;15.98;5.47;;;12.60;99.90;;;;;;5051382;28;20024;-83
2023/06/21 23:42:25;;;;;;;15.73;6.55;;;12.60;99.90;;;;;;5052207;28;20397;-83
2023/06/21 23:44:51;;;;;;;10.80;6.07;;;12.60;99.90;;;;;;5052511;28;20025;-82
2023/06/21 23:47:17;;;;;;;18.20;8.75;;;12.50;99.90;;;;;;5055015;28;20017;-82
2023/06/21 23:49:44;;;;;;;16.70;7.55;;;12.50;99.90;;;;;;5053893;28;20025;-83
2023/06/21 23:52:10;;;;;;;15.15;6.65;;;12.50;99.90;;;;;;5053858;28;20040;-83
2023/06/21 23:54:35;;;;;;;17.20;6.90;;;12.50;99.90;;;;;;5053095;28;20481;-83
2023/06/21 23:57:01;;;;;;;15.02;6.72;;;12.50;99.90;;;;;;5052908;28;20469;-82
2023/06/21 23:59:28;;;;;;;15.65;5.72;;;12.40;99.90;;;;;;5080692;22;20492;-87
